Time;durP1;ratioP1;P1;durP2;ratioP2;P2;SDS_P1;SDS_P2;PMS_P1;PMS_P2;Temp;Humidity;BMP_temperature;BMP_pressure;BME280_temperature;BME280_humidity;BME280_pressure;Samples;Min_cycle;Max_cycle;Signal;HPM_P1;HPM_P2
2023/04/01 00:02:16;;;;;;;6.75;1.60;;;;;;;;;;5035618;28;20042;-80
2023/04/01 00:04:42;;;;;;;8.73;1.80;;;;;;;;;;5043989;28;20045;-80
2023/04/01 00:07:14;;;;;;;15.23;2.17;;;;;;;;;;5048478;28;20029;-79
2023/04/01 00:09:46;;;;;;;48.13;2.67;;;;;;;;;;5037117;28;20083;-79
2023/04/01 00:12:12;;;;;;;32.28;2.17;;;;;;;;;;5028541;28;20457;-80
2023/04/01 00:14:44;;;;;;;32.35;2.38;;;;;;;;;;5041697;28;20052;-80
2023/04/01 00:17:16;;;;;;;8.30;2.03;;;;;;;;;;5040171;28;20045;-80
2023/04/01 00:19:42;;;;;;;10.55;2.03;;;;;;;;;;5040307;28;20397;-79
2023/04/01 00:22:14;;;;;;;8.00;1.90;;;;;;;;;;5041089;28;20033;-79
2023/04/01 00:24:47;;;;;;;6.30;1.75;;;;;;;;;;5043966;28;20049;-80
2023/04/01 00:27:12;;;;;;;5.25;1.50;;;;;;;;;;5045773;28;20040;-80
2023/04/01 00:29:44;;;;;;;6.63;1.73;;;;;;;;;;5051888;28;20021;-79
2023/04/01 00:32:17;;;;;;;15.20;1.83;;;;;;;;;;5041820;28;20099;-80
2023/04/01 00:34:44;;;;;;;4.90;1.92;;;;;;;;;;5042245;28;20063;-80
2023/04/01 00:37:15;;;;;;;4.53;1.65;;;;;;;;;;5050802;28;20099;-79
2023/04/01 00:39:47;;;;;;;4.15;1.60;;;;;;;;;;5047045;28;20102;-79
2023/04/01 00:42:13;;;;;;;5.07;1.58;;;;;;;;;;5036401;28;20060;-79
2023/04/01 00:44:45;;;;;;;70.35;3.10;;;;;;;;;;5037992;28;20068;-80
2023/04/01 00:47:18;;;;;;;39.67;2.60;;;;;;;;;;5039673;28;20091;-80
2023/04/01 00:49:52;;;;;;;19.23;2.00;;;;;;;;;;5047016;28;20746;-80
2023/04/01 00:52:25;;;;;;;8.10;1.88;;;;;;;;;;5040900;28;20087;-80
2023/04/01 00:55:01;;;;;;;12.17;1.90;;;;;;;;;;5034290;28;20891;-80
2023/04/01 00:57:37;;;;;;;10.18;1.98;;;;;;;;;;5037183;28;20146;-81
2023/04/01 01:00:13;;;;;;;6.45;1.65;;;;;;;;;;5045285;28;20041;-80
2023/04/01 01:02:46;;;;;;;14.23;2.08;;;;;;;;;;5040242;28;20129;-80
2023/04/01 01:05:20;;;;;;;4.75;2.08;;;;;;;;;;5044063;28;20047;-81
2023/04/01 01:08:37;;;;;;;6.70;2.20;;;;;;;;;;5036525;28;20041;-80
2023/04/01 01:11:12;;;;;;;9.88;2.10;;;;;;;;;;4996399;28;20049;-80
2023/04/01 01:13:54;;;;;;;7.13;1.92;;;;;;;;;;5047045;28;20044;-80
2023/04/01 01:16:35;;;;;;;16.30;2.13;;;;;;;;;;5030437;28;20033;-80
2023/04/01 01:19:12;;;;;;;9.95;1.77;;;;;;;;;;5036252;28;20095;-80
2023/04/01 01:22:13;;;;;;;6.10;1.73;;;;;;;;;;5040642;28;20423;-80
2023/04/01 01:25:01;;;;;;;6.40;1.60;;;;;;;;;;5031988;28;20082;-80
2023/04/01 01:27:33;;;;;;;9.40;1.80;;;;;;;;;;5034394;28;20036;-80
2023/04/01 01:30:25;;;;;;;36.28;2.45;;;;;;;;;;5038157;28;20095;-80
2023/04/01 01:32:56;;;;;;;8.07;1.65;;;;;;;;;;5033860;28;20452;-80
2023/04/01 01:35:48;;;;;;;6.00;1.70;;;;;;;;;;5044848;28;20037;-80
2023/04/01 01:38:23;;;;;;;2.65;1.17;;;;;;;;;;5035127;28;20431;-80
2023/04/01 01:40:57;;;;;;;3.03;1.13;;;;;;;;;;5035699;28;20041;-80
2023/04/01 01:43:33;;;;;;;10.15;2.22;;;;;;;;;;5037118;28;20499;-80
2023/04/01 01:46:13;;;;;;;8.18;1.50;;;;;;;;;;5041109;28;20493;-80
2023/04/01 01:48:46;;;;;;;6.80;1.50;;;;;;;;;;5035312;28;20120;-81
2023/04/01 01:51:20;;;;;;;2.50;1.17;;;;;;;;;;5039711;28;20125;-80
2023/04/01 01:53:45;;;;;;;4.15;1.30;;;;;;;;;;5039933;28;20094;-80
2023/04/01 01:56:17;;;;;;;4.90;1.30;;;;;;;;;;5038454;28;20465;-80
2023/04/01 01:58:53;;;;;;;6.47;1.10;;;;;;;;;;5042014;28;20056;-80
2023/04/01 02:01:30;;;;;;;2.70;1.05;;;;;;;;;;5035789;28;20132;-80
2023/04/01 02:04:03;;;;;;;3.13;1.40;;;;;;;;;;5034903;28;20041;-80
2023/04/01 02:06:37;;;;;;;3.90;0.90;;;;;;;;;;5042122;28;20037;-80
2023/04/01 02:09:10;;;;;;;2.47;0.93;;;;;;;;;;5045110;28;20078;-80
2023/04/01 02:11:56;;;;;;;3.33;0.80;;;;;;;;;;5043694;28;20507;-80
2023/04/01 02:14:38;;;;;;;2.20;0.90;;;;;;;;;;5031388;28;20049;-80
2023/04/01 02:17:15;;;;;;;5.80;1.00;;;;;;;;;;5034927;28;20034;-80
2023/04/01 02:19:56;;;;;;;8.70;0.82;;;;;;;;;;5040062;28;20087;-80
2023/04/01 02:22:31;;;;;;;2.38;1.00;;;;;;;;;;5044213;28;20048;-80
2023/04/01 02:25:12;;;;;;;1.77;0.80;;;;;;;;;;5044587;28;20095;-79
2023/04/01 02:27:45;;;;;;;2.20;0.70;;;;;;;;;;5037072;28;20037;-80
2023/04/01 02:30:18;;;;;;;3.80;0.90;;;;;;;;;;5051000;28;20507;-80
2023/04/01 02:32:44;;;;;;;1.25;0.70;;;;;;;;;;5034751;28;20115;-80
2023/04/01 02:35:17;;;;;;;2.40;0.75;;;;;;;;;;5049037;28;20040;-80
2023/04/01 02:37:50;;;;;;;1.60;0.80;;;;;;;;;;5034724;28;20084;-82
2023/04/01 02:40:17;;;;;;;1.15;0.70;;;;;;;;;;5048350;28;20049;-81
2023/04/01 02:42:49;;;;;;;1.52;0.80;;;;;;;;;;5022769;28;20040;-81
2023/04/01 02:45:21;;;;;;;6.28;0.90;;;;;;;;;;5044899;28;20453;-80
2023/04/01 02:47:47;;;;;;;2.47;0.70;;;;;;;;;;5040887;28;20044;-80
2023/04/01 02:50:18;;;;;;;0.75;0.50;;;;;;;;;;5044214;28;20033;-81
2023/04/01 02:52:50;;;;;;;1.92;0.60;;;;;;;;;;5042853;28;20088;-80
2023/04/01 02:55:16;;;;;;;0.68;0.50;;;;;;;;;;5039339;28;20057;-80
2023/04/01 02:57:47;;;;;;;2.00;0.55;;;;;;;;;;5041961;28;20034;-81
2023/04/01 03:00:19;;;;;;;0.98;0.50;;;;;;;;;;5037091;28;20473;-80
2023/04/01 03:02:45;;;;;;;0.52;0.50;;;;;;;;;;5033938;28;20044;-80
2023/04/01 03:05:16;;;;;;;1.17;0.50;;;;;;;;;;5046668;28;20029;-80
2023/04/01 03:07:48;;;;;;;3.80;0.60;;;;;;;;;;5038314;28;20378;-81
2023/04/01 03:10:14;;;;;;;0.73;0.47;;;;;;;;;;5038474;28;20077;-81
2023/04/01 03:12:46;;;;;;;0.63;0.50;;;;;;;;;;5035314;28;20064;-81
2023/04/01 03:15:18;;;;;;;3.22;0.60;;;;;;;;;;5044081;28;20440;-81
2023/04/01 03:17:44;;;;;;;1.58;0.40;;;;;;;;;;5039472;28;20045;-81
2023/04/01 03:20:16;;;;;;;0.63;0.40;;;;;;;;;;5028246;28;20030;-81
2023/04/01 03:22:48;;;;;;;2.45;0.50;;;;;;;;;;5036563;28;20044;-81
2023/04/01 03:25:14;;;;;;;1.00;0.25;;;;;;;;;;5043694;28;20041;-81
2023/04/01 03:27:46;;;;;;;0.98;0.50;;;;;;;;;;5042776;28;20441;-81
2023/04/01 03:30:18;;;;;;;0.65;0.47;;;;;;;;;;5043331;28;20045;-81
2023/04/01 03:32:44;;;;;;;2.20;0.50;;;;;;;;;;5039671;28;20040;-81
2023/04/01 03:35:16;;;;;;;3.53;0.60;;;;;;;;;;5049597;28;20034;-80
2023/04/01 03:37:51;;;;;;;0.68;0.40;;;;;;;;;;5035533;28;20036;-80
2023/04/01 03:40:16;;;;;;;0.77;0.40;;;;;;;;;;5044818;28;20041;-82
2023/04/01 03:42:48;;;;;;;0.47;0.40;;;;;;;;;;5039708;28;20090;-81
2023/04/01 03:45:20;;;;;;;2.63;0.60;;;;;;;;;;5039330;28;20064;-81
2023/04/01 03:47:46;;;;;;;2.80;0.50;;;;;;;;;;5036281;28;20060;-81
2023/04/01 03:50:17;;;;;;;0.38;0.38;;;;;;;;;;5041743;28;20041;-81
2023/04/01 03:52:49;;;;;;;1.08;0.45;;;;;;;;;;5042735;28;20038;-81
2023/04/01 03:55:15;;;;;;;1.17;0.57;;;;;;;;;;5050256;28;20049;-81
2023/04/01 03:57:47;;;;;;;0.68;0.50;;;;;;;;;;5045989;28;20420;-81
2023/04/01 04:00:20;;;;;;;0.38;0.30;;;;;;;;;;5051603;28;20115;-80
2023/04/01 04:02:45;;;;;;;3.13;0.60;;;;;;;;;;5037593;28;20031;-81
2023/04/01 04:05:17;;;;;;;1.30;0.50;;;;;;;;;;5052654;28;20039;-81
2023/04/01 04:07:50;;;;;;;0.77;0.40;;;;;;;;;;5036862;28;20084;-80
2023/04/01 04:10:16;;;;;;;0.35;0.35;;;;;;;;;;5037753;28;20049;-80
2023/04/01 04:12:48;;;;;;;3.65;0.60;;;;;;;;;;5044219;28;20044;-81
2023/04/01 04:15:20;;;;;;;0.85;0.35;;;;;;;;;;5047131;28;20550;-81
2023/04/01 04:17:46;;;;;;;3.97;0.52;;;;;;;;;;5048230;28;20056;-81
2023/04/01 04:20:18;;;;;;;0.65;0.40;;;;;;;;;;5043113;28;20431;-81
2023/04/01 04:22:50;;;;;;;0.47;0.40;;;;;;;;;;5054736;28;20111;-80
2023/04/01 04:25:16;;;;;;;1.35;0.40;;;;;;;;;;5039567;28;20045;-81
2023/04/01 04:27:49;;;;;;;0.68;0.43;;;;;;;;;;5042148;28;20389;-80
2023/04/01 04:30:20;;;;;;;0.43;0.30;;;;;;;;;;5037479;28;20041;-81
2023/04/01 04:32:46;;;;;;;0.70;0.50;;;;;;;;;;5036823;28;20298;-81
2023/04/01 04:35:17;;;;;;;4.47;0.60;;;;;;;;;;5045572;28;20078;-81
2023/04/01 04:37:49;;;;;;;2.15;0.50;;;;;;;;;;5041216;28;20125;-81
2023/04/01 04:40:15;;;;;;;0.30;0.30;;;;;;;;;;5050511;28;20044;-81
2023/04/01 04:42:47;;;;;;;0.60;0.38;;;;;;;;;;5039359;28;20440;-81
2023/04/01 04:45:20;;;;;;;1.65;0.40;;;;;;;;;;5045339;28;20082;-81
2023/04/01 04:47:45;;;;;;;4.13;0.47;;;;;;;;;;5040466;28;20064;-81
2023/04/01 04:50:17;;;;;;;1.30;0.60;;;;;;;;;;5042755;28;20068;-81
2023/04/01 04:52:49;;;;;;;2.03;0.50;;;;;;;;;;5041246;28;20056;-81
2023/04/01 04:55:15;;;;;;;0.45;0.30;;;;;;;;;;5045279;28;20046;-81
2023/04/01 04:57:47;;;;;;;2.50;0.57;;;;;;;;;;5042663;28;20029;-81
2023/04/01 05:00:19;;;;;;;0.47;0.40;;;;;;;;;;5042823;28;20053;-82
2023/04/01 05:02:45;;;;;;;3.58;0.35;;;;;;;;;;5036862;28;20065;-81
2023/04/01 05:05:17;;;;;;;6.43;0.45;;;;;;;;;;5038303;28;20084;-81
2023/04/01 05:07:49;;;;;;;0.52;0.40;;;;;;;;;;5036762;28;20049;-81
2023/04/01 05:10:15;;;;;;;0.20;0.20;;;;;;;;;;5040390;28;20046;-81
2023/04/01 05:12:47;;;;;;;0.20;0.20;;;;;;;;;;5039178;28;20107;-81
2023/04/01 05:15:19;;;;;;;0.57;0.30;;;;;;;;;;5036306;28;20041;-81
2023/04/01 05:17:45;;;;;;;0.50;0.35;;;;;;;;;;5037113;28;20044;-81
2023/04/01 05:20:18;;;;;;;0.20;0.20;;;;;;;;;;5037203;28;20037;-81
2023/04/01 05:22:55;;;;;;;0.63;0.32;;;;;;;;;;5035386;28;20043;-80
2023/04/01 05:25:27;;;;;;;1.80;0.35;;;;;;;;;;5038515;28;20041;-80
2023/04/01 05:27:59;;;;;;;0.70;0.40;;;;;;;;;;5039375;28;20159;-79
2023/04/01 05:30:25;;;;;;;2.25;0.43;;;;;;;;;;5039829;28;20378;-80
2023/04/01 05:32:56;;;;;;;6.90;0.57;;;;;;;;;;5038079;28;20030;-80
2023/04/01 05:35:28;;;;;;;0.30;0.30;;;;;;;;;;5040968;28;20151;-80
2023/04/01 05:37:54;;;;;;;0.95;0.40;;;;;;;;;;5046724;28;20041;-79
2023/04/01 05:40:26;;;;;;;0.28;0.28;;;;;;;;;;5044759;28;20479;-81
2023/04/01 05:43:00;;;;;;;0.88;0.30;;;;;;;;;;5030218;28;20124;-81
2023/04/01 05:45:25;;;;;;;0.63;0.30;;;;;;;;;;5049309;28;20033;-81
2023/04/01 05:47:57;;;;;;;0.77;0.47;;;;;;;;;;5037266;28;20488;-80
2023/04/01 05:50:29;;;;;;;0.43;0.35;;;;;;;;;;5039175;28;20432;-80
2023/04/01 05:52:55;;;;;;;1.48;0.40;;;;;;;;;;5043611;28;20077;-81
2023/04/01 05:55:27;;;;;;;3.40;0.80;;;;;;;;;;5050147;28;20064;-81
2023/04/01 05:57:59;;;;;;;1.27;0.50;;;;;;;;;;5039965;28;20087;-81
2023/04/01 06:00:25;;;;;;;1.27;0.60;;;;;;;;;;5047176;28;20053;-81
2023/04/01 06:02:57;;;;;;;0.73;0.40;;;;;;;;;;5041864;28;20037;-81
2023/04/01 06:05:36;;;;;;;1.02;0.50;;;;;;;;;;5043930;28;20436;-81
2023/04/01 06:08:17;;;;;;;2.60;0.80;;;;;;;;;;5033542;28;20080;-81
2023/04/01 06:11:13;;;;;;;1.33;0.60;;;;;;;;;;5038007;28;20042;-81
2023/04/01 06:13:58;;;;;;;2.67;0.65;;;;;;;;;;5038563;28;20034;-81
2023/04/01 06:17:04;;;;;;;1.77;0.52;;;;;;;;;;5043568;28;20389;-81
2023/04/01 06:20:07;;;;;;;0.82;0.30;;;;;;;;;;5023858;28;20034;-81
2023/04/01 06:22:49;;;;;;;3.28;0.63;;;;;;;;;;5036511;28;20029;-81
2023/04/01 06:25:44;;;;;;;2.35;0.50;;;;;;;;;;5034652;28;20414;-82
2023/04/01 06:28:34;;;;;;;1.92;0.63;;;;;;;;;;5034421;28;20042;-82
2023/04/01 06:31:30;;;;;;;3.63;0.70;;;;;;;;;;5039490;28;20040;-80
2023/04/01 06:34:09;;;;;;;2.25;0.75;;;;;;;;;;5027186;28;20049;-81
2023/04/01 06:37:02;;;;;;;5.03;1.27;;;;;;;;;;5028402;28;20542;-81
2023/04/01 06:40:01;;;;;;;2.03;1.00;;;;;;;;;;5048393;28;20063;-81
2023/04/01 06:42:47;;;;;;;4.20;0.95;;;;;;;;;;5019907;28;20126;-81
2023/04/01 06:45:43;;;;;;;4.43;1.13;;;;;;;;;;5051297;28;20542;-82
2023/04/01 06:48:21;;;;;;;2.28;1.20;;;;;;;;;;5031586;28;20041;-82
2023/04/01 06:50:58;;;;;;;6.75;3.50;;;;;;;;;;5032405;28;20098;-82
2023/04/01 06:53:36;;;;;;;5.28;2.35;;;;;;;;;;5037956;28;20075;-82
2023/04/01 06:56:11;;;;;;;6.00;1.50;;;;;;;;;;5038786;28;20536;-82
2023/04/01 06:58:54;;;;;;;6.00;1.83;;;;;;;;;;5037379;28;20063;-82
2023/04/01 07:01:35;;;;;;;7.80;2.33;;;;;;;;;;5040111;28;20033;-83
2023/04/01 07:04:29;;;;;;;4.18;1.98;;;;;;;;;;5034919;28;20041;-82
2023/04/01 07:07:04;;;;;;;6.05;2.13;;;;;;;;;;5035931;28;20071;-82
2023/04/01 07:09:45;;;;;;;13.40;3.30;;;;;;;;;;5039367;28;20041;-81
2023/04/01 07:12:36;;;;;;;6.78;2.90;;;;;;;;;;5032876;28;20076;-82
2023/04/01 07:15:21;;;;;;;6.05;2.65;;;;;;;;;;5037686;28;20040;-82
2023/04/01 07:17:57;;;;;;;8.50;3.08;;;;;;;;;;5033857;28;20080;-81
2023/04/01 07:20:39;;;;;;;7.88;2.95;;;;;;;;;;5056565;28;20388;-81
2023/04/01 07:23:24;;;;;;;10.82;3.85;;;;;;;;;;5040760;28;20061;-82
2023/04/01 07:26:06;;;;;;;15.80;3.97;;;;;;;;;;5036786;28;20040;-81
2023/04/01 07:28:39;;;;;;;14.15;4.38;;;;;;;;;;5038161;28;20603;-81
2023/04/01 07:31:20;;;;;;;9.38;4.30;;;;;;;;;;5044243;28;20045;-81
2023/04/01 07:34:08;;;;;;;16.85;5.40;;;;;;;;;;5041714;28;20072;-81
2023/04/01 07:36:54;;;;;;;10.50;4.60;;;;;;;;;;5038265;28;20072;-80
2023/04/01 07:39:53;;;;;;;12.70;5.03;;;;;;;;;;5022729;28;20118;-81
2023/04/01 07:42:40;;;;;;;11.23;4.88;;;;;;;;;;5037470;28;20037;-81
2023/04/01 07:45:24;;;;;;;12.25;5.30;;;;;;;;;;5044754;28;20535;-81
2023/04/01 07:48:26;;;;;;;13.50;5.50;;;;;;;;;;5044599;28;20091;-81
2023/04/01 07:51:03;;;;;;;15.05;5.80;;;;;;;;;;5028243;28;20045;-81
2023/04/01 07:53:49;;;;;;;15.07;5.80;;;;;;;;;;5022800;28;20041;-82
2023/04/01 07:56:34;;;;;;;14.48;5.85;;;;;;;;;;5041868;28;20041;-82
2023/04/01 07:59:14;;;;;;;17.88;6.50;;;;;;;;;;5043028;28;20053;-82
2023/04/01 08:02:11;;;;;;;9.85;5.30;;;;;;;;;;5045400;28;20049;-82
2023/04/01 08:05:27;;;;;;;12.30;5.38;;;;;;;;;;5038861;28;20045;-82
2023/04/01 08:08:18;;;;;;;8.65;4.80;;;;;;;;;;5018604;28;20053;-81
2023/04/01 08:10:56;;;;;;;13.73;6.25;;;;;;;;;;5037991;28;20057;-81
2023/04/01 08:13:46;;;;;;;11.18;3.88;;;;;;;;;;5034568;28;20041;-81
2023/04/01 08:16:26;;;;;;;10.55;3.95;;;;;;;;;;5040631;28;20880;-81
2023/04/01 08:19:20;;;;;;;6.60;2.85;;;;;;;;;;5032835;28;20393;-80
2023/04/01 08:21:56;;;;;;;5.53;2.70;;;;;;;;;;5034673;28;20118;-80
2023/04/01 08:24:42;;;;;;;5.78;2.80;;;;;;;;;;5030751;28;20044;-81
2023/04/01 08:27:44;;;;;;;5.35;2.88;;;;;;;;;;5031650;28;20053;-81
2023/04/01 08:30:22;;;;;;;4.10;2.28;;;;;;;;;;5020560;28;20037;-81
2023/04/01 08:33:01;;;;;;;6.63;2.70;;;;;;;;;;5029973;28;20044;-81
2023/04/01 08:35:55;;;;;;;7.30;2.88;;;;;;;;;;5040342;28;20111;-81
2023/04/01 08:38:45;;;;;;;5.85;2.65;;;;;;;;;;5039709;28;20037;-81
2023/04/01 08:41:31;;;;;;;5.03;2.70;;;;;;;;;;5033579;28;20041;-81
2023/04/01 08:44:18;;;;;;;6.15;2.85;;;;;;;;;;5031325;28;20053;-81
2023/04/01 08:47:00;;;;;;;10.85;3.30;;;;;;;;;;5027892;28;20060;-81
2023/04/01 08:49:43;;;;;;;5.65;2.67;;;;;;;;;;5035262;28;20036;-81
2023/04/01 08:52:31;;;;;;;6.07;2.92;;;;;;;;;;5044392;28;20087;-81
2023/04/01 08:55:30;;;;;;;5.90;2.58;;;;;;;;;;5043030;28;20033;-81
2023/04/01 08:58:42;;;;;;;4.93;2.15;;;;;;;;;;5020277;28;20469;-81
2023/04/01 09:01:14;;;;;;;4.85;2.15;;;;;;;;;;5024271;28;20588;-81
2023/04/01 09:04:02;;;;;;;5.43;2.30;;;;;;;;;;5038882;28;20033;-81
2023/04/01 09:06:39;;;;;;;3.38;2.00;;;;;;;;;;5037622;28;20115;-81
2023/04/01 09:09:21;;;;;;;3.20;1.80;;;;;;;;;;5032228;28;20037;-81
2023/04/01 09:12:17;;;;;;;6.05;1.85;;;;;;;;;;5032149;28;20418;-80
2023/04/01 09:15:18;;;;;;;2.33;1.33;;;;;;;;;;5034195;28;20052;-82
2023/04/01 09:18:27;;;;;;;5.47;1.63;;;;;;;;;;5027215;28;20044;-81
2023/04/01 09:21:10;;;;;;;2.40;1.40;;;;;;;;;;5039653;28;20103;-81
2023/04/01 09:24:03;;;;;;;2.08;1.10;;;;;;;;;;5034300;28;20432;-82
2023/04/01 09:26:55;;;;;;;2.08;1.17;;;;;;;;;;5038425;28;20095;-82
2023/04/01 09:29:51;;;;;;;2.55;1.30;;;;;;;;;;5035127;28;20124;-82
2023/04/01 09:32:41;;;;;;;2.35;1.20;;;;;;;;;;5036302;28;20615;-81
2023/04/01 09:35:42;;;;;;;3.13;1.45;;;;;;;;;;5039796;28;20052;-81
2023/04/01 09:38:23;;;;;;;2.38;1.27;;;;;;;;;;5034411;28;20095;-80
2023/04/01 09:41:07;;;;;;;3.45;1.60;;;;;;;;;;5038826;28;20477;-80
2023/04/01 09:43:54;;;;;;;5.15;2.40;;;;;;;;;;5046510;28;20044;-80
2023/04/01 09:46:46;;;;;;;4.57;2.55;;;;;;;;;;5039551;28;20094;-80
2023/04/01 09:49:33;;;;;;;7.50;2.67;;;;;;;;;;5046896;28;20488;-80
2023/04/01 09:52:14;;;;;;;6.28;3.17;;;;;;;;;;5040400;28;20041;-79
2023/04/01 09:54:59;;;;;;;4.95;3.25;;;;;;;;;;5043910;28;20124;-80
2023/04/01 09:57:52;;;;;;;5.40;2.60;;;;;;;;;;5034813;28;20084;-80
2023/04/01 10:00:43;;;;;;;4.57;3.10;;;;;;;;;;5044220;28;20052;-80
2023/04/01 10:03:39;;;;;;;5.03;3.03;;;;;;;;;;5028736;28;20049;-81
2023/04/01 10:06:36;;;;;;;5.88;3.67;;;;;;;;;;5036316;28;20051;-81
2023/04/01 10:09:20;;;;;;;4.90;3.22;;;;;;;;;;5046833;28;20481;-81
2023/04/01 10:12:05;;;;;;;;;;;;;;;;;;5048985;28;20059;-81
2023/04/01 10:14:45;;;;;;;4.63;3.17;;;;;;;;;;5049715;28;19916;-81
2023/04/01 10:18:00;;;;;;;6.30;3.63;;;;;;;;;;5039006;28;20103;-81
2023/04/01 10:20:46;;;;;;;5.28;3.25;;;;;;;;;;5025542;28;20057;-81
2023/04/01 10:23:25;;;;;;;8.85;5.15;;;;;;;;;;5038260;28;20045;-81
2023/04/01 10:26:25;;;;;;;8.45;5.32;;;;;;;;;;5051100;28;20052;-85
2023/04/01 10:29:16;;;;;;;7.75;4.75;;;;;;;;;;5026128;28;20057;-81
2023/04/01 10:31:54;;;;;;;11.95;6.13;;;;;;;;;;5037993;28;20061;-80
2023/04/01 10:34:39;;;;;;;8.07;4.22;;;;;;;;;;5042681;28;20048;-80
2023/04/01 10:37:35;;;;;;;9.60;5.93;;;;;;;;;;5036667;28;20042;-80
2023/04/01 10:40:35;;;;;;;14.13;6.40;;;;;;;;;;5030308;28;20038;-79
2023/04/01 10:43:35;;;;;;;10.20;4.72;;;;;;;;;;5034000;28;20048;-79
2023/04/01 10:46:40;;;;;;;10.60;6.20;;;;;;;;;;5035276;28;20041;-79
2023/04/01 10:49:30;;;;;;;11.45;6.25;;;;;;;;;;5035356;28;20041;-79
2023/04/01 10:52:36;;;;;;;11.38;5.93;;;;;;;;;;5032072;28;20550;-79
2023/04/01 10:55:18;;;;;;;12.13;7.22;;;;;;;;;;5029831;28;20087;-80
2023/04/01 10:58:23;;;;;;;8.45;5.90;;;;;;;;;;5031230;28;20044;-79
2023/04/01 11:01:09;;;;;;;;;;;;;;;;;;5020963;28;20493;-80
2023/04/01 11:03:54;;;;;;;11.15;5.95;;;;;;;;;;5036765;28;20347;-80
2023/04/01 11:07:04;;;;;;;9.40;6.05;;;;;;;;;;5037797;28;20429;-80
2023/04/01 11:09:42;;;;;;;10.48;6.05;;;;;;;;;;5033379;28;20048;-80
2023/04/01 11:12:41;;;;;;;9.85;6.05;;;;;;;;;;5048458;28;20046;-80
2023/04/01 11:15:30;;;;;;;11.93;5.90;;;;;;;;;;5042604;28;20497;-80
2023/04/01 11:18:11;;;;;;;9.25;5.55;;;;;;;;;;5036592;28;20045;-80
2023/04/01 11:20:46;;;;;;;9.63;6.05;;;;;;;;;;5041786;28;20049;-80
2023/04/01 11:23:59;;;;;;;11.18;6.10;;;;;;;;;;5027279;28;20048;-79
2023/04/01 11:26:57;;;;;;;8.80;5.50;;;;;;;;;;5028555;28;20135;-80
2023/04/01 11:29:57;;;;;;;10.48;4.90;;;;;;;;;;5027463;28;20049;-80
2023/04/01 11:32:48;;;;;;;7.07;4.85;;;;;;;;;;5040959;28;20038;-80
2023/04/01 11:35:35;;;;;;;7.50;4.18;;;;;;;;;;5049599;28;20409;-80
2023/04/01 11:38:42;;;;;;;8.35;4.78;;;;;;;;;;5043648;28;20044;-79
2023/04/01 11:41:40;;;;;;;7.43;4.50;;;;;;;;;;5030726;28;20075;-80
2023/04/01 11:44:17;;;;;;;6.82;4.53;;;;;;;;;;5032206;28;20052;-79
2023/04/01 11:47:21;;;;;;;6.47;3.70;;;;;;;;;;5042804;28;20041;-80
2023/04/01 11:50:12;;;;;;;11.45;4.40;;;;;;;;;;5034325;28;20041;-79
2023/04/01 11:52:43;;;;;;;7.35;3.80;;;;;;;;;;5032511;28;20059;-79
2023/04/01 11:55:37;;;;;;;4.97;3.25;;;;;;;;;;5036540;28;20045;-79
2023/04/01 11:58:42;;;;;;;7.50;3.97;;;;;;;;;;5038564;28;20112;-79
2023/04/01 12:01:25;;;;;;;4.88;3.15;;;;;;;;;;5055121;28;20136;-79
2023/04/01 12:04:34;;;;;;;7.63;3.45;;;;;;;;;;5044144;28;20052;-79
2023/04/01 12:07:42;;;;;;;4.68;2.80;;;;;;;;;;5042486;28;20049;-80
2023/04/01 12:10:34;;;;;;;5.07;3.40;;;;;;;;;;5033460;28;20029;-80
2023/04/01 12:13:19;;;;;;;5.20;3.10;;;;;;;;;;5042260;28;20039;-80
2023/04/01 12:16:11;;;;;;;6.50;3.10;;;;;;;;;;5048238;28;20377;-80
2023/04/01 12:18:59;;;;;;;4.65;3.05;;;;;;;;;;5043328;28;20412;-79
2023/04/01 12:21:50;;;;;;;4.20;2.90;;;;;;;;;;5022991;28;20063;-80
2023/04/01 12:25:09;;;;;;;6.03;3.33;;;;;;;;;;5036332;28;20033;-80
2023/04/01 12:27:55;;;;;;;4.38;2.80;;;;;;;;;;4989110;28;20130;-79
2023/04/01 12:30:46;;;;;;;5.97;2.90;;;;;;;;;;5033100;28;20064;-80
2023/04/01 12:33:39;;;;;;;5.70;2.95;;;;;;;;;;5044570;28;20386;-80
2023/04/01 12:36:23;;;;;;;4.30;2.55;;;;;;;;;;5040187;28;20396;-80
2023/04/01 12:39:26;;;;;;;6.55;3.55;;;;;;;;;;5029942;28;20063;-80
2023/04/01 12:42:05;;;;;;;9.90;3.03;;;;;;;;;;5028837;28;20604;-79
2023/04/01 12:44:55;;;;;;;6.57;3.30;;;;;;;;;;5042358;28;20049;-80
2023/04/01 12:47:55;;;;;;;6.13;3.05;;;;;;;;;;5039986;28;20106;-79
2023/04/01 12:50:34;;;;;;;7.78;3.80;;;;;;;;;;5041957;28;20037;-79
2023/04/01 12:53:19;;;;;;;5.95;3.35;;;;;;;;;;5045114;28;20054;-80
2023/04/01 12:55:52;;;;;;;6.38;3.15;;;;;;;;;;5043775;28;20048;-79
2023/04/01 12:58:42;;;;;;;6.80;3.60;;;;;;;;;;5040827;28;20033;-79
2023/04/01 13:01:21;;;;;;;6.72;3.75;;;;;;;;;;5031562;28;20130;-79
2023/04/01 13:04:15;;;;;;;6.22;3.03;;;;;;;;;;5037852;28;20496;-79
2023/04/01 13:07:02;;;;;;;7.47;3.38;;;;;;;;;;5036804;28;20508;-79
2023/04/01 13:10:00;;;;;;;5.60;3.00;;;;;;;;;;5041327;28;20038;-79
2023/04/01 13:12:59;;;;;;;5.55;2.90;;;;;;;;;;5035712;28;20493;-79
2023/04/01 13:15:42;;;;;;;3.90;2.75;;;;;;;;;;5030202;28;20056;-79
2023/04/01 13:18:20;;;;;;;4.82;2.60;;;;;;;;;;5033936;28;20029;-79
2023/04/01 13:21:34;;;;;;;4.78;2.70;;;;;;;;;;5037597;28;20090;-79
2023/04/01 13:24:17;;;;;;;5.32;2.83;;;;;;;;;;4969882;28;20147;-79
2023/04/01 13:26:57;;;;;;;5.95;2.80;;;;;;;;;;5032696;28;20163;-80
2023/04/01 13:29:37;;;;;;;4.15;2.55;;;;;;;;;;5036306;28;20396;-80
2023/04/01 13:32:25;;;;;;;4.68;2.50;;;;;;;;;;5018889;28;20060;-80
2023/04/01 13:35:26;;;;;;;4.63;2.28;;;;;;;;;;5033580;28;20048;-79
2023/04/01 13:38:14;;;;;;;4.35;2.25;;;;;;;;;;5036756;28;20037;-80
2023/04/01 13:41:03;;;;;;;4.18;2.05;;;;;;;;;;5032577;28;20065;-79
2023/04/01 13:43:38;;;;;;;4.32;1.98;;;;;;;;;;5039372;28;20040;-79
2023/04/01 13:46:13;;;;;;;4.97;1.83;;;;;;;;;;5042818;28;20048;-79
2023/04/01 13:48:54;;;;;;;3.90;1.77;;;;;;;;;;5037718;28;20051;-79
2023/04/01 13:51:29;;;;;;;8.18;3.05;;;;;;;;;;5038470;28;20037;-79
2023/04/01 13:54:07;;;;;;;3.40;2.05;;;;;;;;;;5043075;28;20103;-79
2023/04/01 13:56:42;;;;;;;4.03;2.15;;;;;;;;;;5042881;28;20115;-79
2023/04/01 13:59:42;;;;;;;5.57;1.92;;;;;;;;;;5031282;28;20064;-79
2023/04/01 14:02:20;;;;;;;3.97;2.08;;;;;;;;;;5033806;28;20037;-79
2023/04/01 14:05:09;;;;;;;2.97;1.80;;;;;;;;;;5031369;28;20033;-79
2023/04/01 14:08:02;;;;;;;3.42;1.30;;;;;;;;;;5028953;28;20034;-79
2023/04/01 14:10:46;;;;;;;4.90;1.47;;;;;;;;;;5026835;28;20124;-79
2023/04/01 14:13:24;;;;;;;;;;;;;;;;;;5035260;28;20459;-79
2023/04/01 14:16:10;;;;;;;2.25;1.00;;;;;;;;;;5036811;28;19927;-80
2023/04/01 14:19:15;;;;;;;3.90;1.20;;;;;;;;;;5032710;28;20052;-80
2023/04/01 14:22:10;;;;;;;2.10;1.02;;;;;;;;;;5036578;28;20056;-79
2023/04/01 14:25:23;;;;;;;2.50;1.10;;;;;;;;;;5030583;28;20484;-79
2023/04/01 14:28:14;;;;;;;3.45;1.20;;;;;;;;;;5025806;28;20064;-79
2023/04/01 14:30:55;;;;;;;2.20;1.30;;;;;;;;;;5032741;28;20033;-79
2023/04/01 14:33:47;;;;;;;2.25;1.00;;;;;;;;;;5039242;28;20033;-79
2023/04/01 14:36:46;;;;;;;3.22;0.90;;;;;;;;;;5043546;28;20094;-79
2023/04/01 14:39:35;;;;;;;2.78;0.95;;;;;;;;;;5042610;28;20041;-79
2023/04/01 14:42:48;;;;;;;3.75;0.77;;;;;;;;;;5041095;28;20060;-79
2023/04/01 14:45:48;;;;;;;1.33;0.70;;;;;;;;;;5027643;28;20048;-79
2023/04/01 14:48:28;;;;;;;2.58;0.82;;;;;;;;;;5035714;28;20438;-79
2023/04/01 14:51:13;;;;;;;1.42;0.70;;;;;;;;;;5035979;28;20128;-79
2023/04/01 14:53:50;;;;;;;2.47;0.70;;;;;;;;;;5035699;28;20029;-79
2023/04/01 14:56:43;;;;;;;2.05;0.75;;;;;;;;;;5034641;28;20456;-79
2023/04/01 14:59:21;;;;;;;2.33;0.90;;;;;;;;;;5037659;28;20041;-79
2023/04/01 15:02:15;;;;;;;3.00;1.23;;;;;;;;;;5043314;28;20501;-79
2023/04/01 15:05:25;;;;;;;3.27;0.97;;;;;;;;;;5052158;28;20064;-79
2023/04/01 15:07:56;;;;;;;0.70;0.50;;;;;;;;;;5030925;28;20053;-79
2023/04/01 15:10:56;;;;;;;1.52;0.70;;;;;;;;;;5034126;28;20497;-79
2023/04/01 15:13:44;;;;;;;2.15;0.80;;;;;;;;;;5038041;28;20098;-79
2023/04/01 15:17:00;;;;;;;1.70;0.63;;;;;;;;;;5035431;28;20049;-79
2023/04/01 15:20:15;;;;;;;2.28;0.90;;;;;;;;;;5034971;28;20060;-81
2023/04/01 15:22:50;;;;;;;1.80;1.00;;;;;;;;;;5013229;28;20452;-80
2023/04/01 15:25:44;;;;;;;3.50;1.00;;;;;;;;;;5028561;28;20112;-80
2023/04/01 15:28:40;;;;;;;2.75;1.20;;;;;;;;;;5038090;28;20029;-79
2023/04/01 15:31:15;;;;;;;1.80;0.90;;;;;;;;;;5035159;28;20053;-80
2023/04/01 15:34:07;;;;;;;3.45;1.10;;;;;;;;;;5037990;28;20045;-80
2023/04/01 15:37:00;;;;;;;3.42;1.17;;;;;;;;;;5035083;28;20044;-79
2023/04/01 15:39:59;;;;;;;3.65;1.33;;;;;;;;;;5038795;28;20052;-80
2023/04/01 15:42:48;;;;;;;2.88;1.17;;;;;;;;;;5036911;28;20072;-80
2023/04/01 15:45:24;;;;;;;2.85;1.20;;;;;;;;;;5042461;28;20041;-79
2023/04/01 15:48:05;;;;;;;2.17;0.90;;;;;;;;;;5040229;28;20053;-79
2023/04/01 15:50:37;;;;;;;2.03;1.00;;;;;;;;;;5033308;28;20041;-80
2023/04/01 15:53:39;;;;;;;2.88;1.10;;;;;;;;;;5034089;28;20429;-79
2023/04/01 15:56:34;;;;;;;2.92;0.98;;;;;;;;;;5010137;28;20135;-80
2023/04/01 15:59:44;;;;;;;2.58;1.00;;;;;;;;;;5048843;28;20068;-79
2023/04/01 16:02:20;;;;;;;2.75;1.00;;;;;;;;;;5041561;28;20087;-79
2023/04/01 16:04:57;;;;;;;2.90;1.10;;;;;;;;;;5046609;28;20122;-80
2023/04/01 16:07:29;;;;;;;2.55;0.90;;;;;;;;;;5050927;28;20085;-79
2023/04/01 16:10:39;;;;;;;1.70;0.80;;;;;;;;;;5033725;28;20067;-80
2023/04/01 16:13:34;;;;;;;2.20;0.90;;;;;;;;;;5043158;28;20124;-79
2023/04/01 16:16:29;;;;;;;2.90;0.98;;;;;;;;;;5042213;28;20047;-79